Flight Track Log - Related Links

Times and Time Zones

All times are in EDT time to prevent confusion due to time zone crossing. See the UAL4588 flight status page for this flight to view local times or setup timezone preferences in your user account.

Time Position Orientation Groundspeed Altitude Reporting Facility
EDT Latitude Longitude Course Direction KTS MPH feet Rate Location/Type
Fri 14:54:07 37.4733 -77.2639 38° Northeast 184 212 2,400  Level Washington Center
Fri 14:55:07 37.4869 -77.1883 77° East 255 293 4,400 1,900 Climbing Washington Center
Fri 14:56:00 37.6905 -77.1095 38° Northeast  Level FlightAware Approximate
Fri 14:56:07 37.5297 -77.1056 57° Northeast 269 310 6,200  Level Washington Center
Fri 14:57:00 37.7565 -77.0436 38° Northeast  Level FlightAware Approximate
Fri 14:57:07 37.5767 -77.0119 58° Northeast 296 341 8,300  Level Washington Center
Fri 14:58:00 37.8224 -76.9777 38° Northeast  Level FlightAware Approximate
Fri 14:58:07 37.6236 -76.9133 59° Northeast 307 353 10,300  Level Washington Center
Fri 14:59:00 37.8883 -76.9118 38° Northeast  Level FlightAware Approximate
Fri 14:59:07 37.6769 -76.8039 58° Northeast 335 386 11,000  Level Washington Center
Fri 15:00:07 37.7531 -76.7028 46° Northeast 384 442 11,700 950 Climbing Washington Center
Fri 15:01:07 37.8639 -76.6808 North 368 423 12,900 1,700 Climbing Washington Center
Fri 15:02:07 37.9703 -76.6717 North 368 423 15,100 1,700 Climbing Washington Center
Fri 15:03:07 38.0767 -76.6628 North 374 430 16,300 900 Climbing Washington Center
Fri 15:04:07 38.1631 -76.5742 39° Northeast 368 423 16,900 350 Climbing Washington Center
Fri 15:05:07 38.2408 -76.4667 47° Northeast 384 442 17,000 50 Climbing Washington Center
Fri 15:06:07 38.3206 -76.3961 35° Northeast 394 453 17,000  Level Washington Center
Fri 15:07:07 38.4314 -76.3761 North 379 436 17,000  Level Washington Center
Fri 15:08:07 38.5439 -76.3561 North 386 444 17,000  Level Washington Center
Fri 15:09:07 38.6547 -76.3333 North 398 458 17,000  Level Washington Center
Fri 15:10:07 38.7608 -76.3478 354° North 386 444 17,000 -50 Level Washington Center
Fri 15:11:07 38.8692 -76.3703 351° North 386 444 16,900 -50 Descending Washington Center
Fri 15:12:07 38.9772 -76.3981 349° North 392 451 16,900  Level Washington Center
Fri 15:13:07 39.0836 -76.3883 North 392 451 16,900  Level Washington Center
Fri 15:14:07 39.1219 -76.2606 69° East 306 352 16,900  Level Washington Center
Fri 15:15:07 39.1394 -76.1053 82° East 357 411 16,900  Level Washington Center
Fri 15:16:07 39.2128 -75.9961 49° Northeast 376 433 16,900  Level Washington Center
Fri 15:17:07 39.3153 -75.9133 32° Northeast 387 445 16,900  Level Washington Center
Fri 15:18:07 39.4133 -75.8306 33° Northeast 412 474 16,900  Level Washington Center
Fri 15:19:07 39.5114 -75.7503 32° Northeast 418 481 16,900 -150 Level Washington Center
Fri 15:20:07 39.6114 -75.6669 33° Northeast 418 481 16,600 -600 Descending Washington Center
Fri 15:21:07 39.7053 -75.5753 37° Northeast 418 481 15,700 -950 Descending Washington Center
Fri 15:22:07 39.7906 -75.4781 41° Northeast 413 475 14,700 -900 Descending Washington Center
Fri 15:23:07 39.8656 -75.3833 44° Northeast 413 475 13,900 -800 Descending Washington Center
Fri 15:24:07 39.9464 -75.2831 44° Northeast 408 470 13,100 -750 Descending Washington Center
Fri 15:25:07 40.0275 -75.1850 43° Northeast 397 457 12,400 -900 Descending Washington Center
Fri 15:26:07 40.0981 -75.0978 43° Northeast 372 428 11,300 -1,095 Descending Washington Center
Fri 15:27:13 40.1833 -75.0000 41° Northeast 326 375 10,100 -1,238 Descending New York TRACON
Fri 15:28:13 40.2500 -74.9167 44° Northeast 316 364 8,700 -1,000 Descending New York TRACON
Fri 15:29:13 40.3000 -74.8333 52° Northeast 326 375 8,100 -600 Descending New York TRACON
Fri 15:30:13 40.3667 -74.7500 44° Northeast 315 362 7,500 -600 Descending New York TRACON
Fri 15:31:13 40.4333 -74.6667 44° Northeast 309 356 6,900 -600 Descending New York TRACON
Fri 15:32:13 40.5000 -74.6500 11° North 304 350 6,300 -400 Descending New York TRACON
Fri 15:33:13 40.5833 -74.6333 North 299 344 6,100 -100 Descending New York TRACON
Fri 15:34:13 40.6667 -74.6000 17° North 311 358 6,100 -50 Level New York TRACON
Fri 15:35:13 40.7500 -74.5833 North 299 344 6,000 -300 Descending New York TRACON
Fri 15:36:13 40.8167 -74.5333 30° Northeast 292 336 5,500 -250 Descending New York TRACON
Fri 15:37:13 40.9000 -74.4833 24° Northeast 309 356 5,500 -250 Level New York TRACON
Fri 15:38:13 40.9500 -74.4000 52° Northeast 304 350 5,000 -600 Descending New York TRACON
Fri 15:39:13 40.9333 -74.3000 102° East 259 298 4,300 -450 Descending New York TRACON
Fri 15:40:13 40.9167 -74.2167 105° East 244 281 4,100 -333 Descending New York TRACON
Fri 15:41:19 40.9000 -74.1167 102° East 254 292 3,600 -455 Descending New York TRACON

Login

Don't have an account? Register now (free) for customized features, flight alerts, and more!